createdAt,value
2018-04-12T00:02:23.048Z,12.84
2018-04-12T00:08:27.449Z,12.70
2018-04-12T00:14:31.959Z,12.83
2018-04-12T00:20:37.276Z,12.78
2018-04-12T00:26:41.797Z,12.73
2018-04-12T00:32:46.996Z,12.60
2018-04-12T00:38:51.457Z,12.35
2018-04-12T00:44:55.839Z,12.07
2018-04-12T00:51:00.264Z,11.78
2018-04-12T00:57:04.753Z,11.45
2018-04-12T01:03:09.193Z,11.35
2018-04-12T01:09:14.402Z,11.17
2018-04-12T01:15:18.763Z,11.14
2018-04-12T01:21:24.791Z,11.04
2018-04-12T01:27:29.227Z,10.82
2018-04-12T01:33:33.701Z,10.63
2018-04-12T01:39:38.070Z,10.55
2018-04-12T01:45:43.002Z,10.59
2018-04-12T01:51:47.864Z,10.68
2018-04-12T01:57:53.132Z,10.39
2018-04-12T02:03:57.612Z,10.23
2018-04-12T02:10:02.073Z,10.23
2018-04-12T02:16:06.450Z,10.13
2018-04-12T02:22:11.754Z,10.07
2018-04-12T02:28:16.112Z,10.00
2018-04-12T02:34:21.247Z,10.02
2018-04-12T02:40:25.638Z,10.08
2018-04-12T02:46:30.038Z,10.04
2018-04-12T02:52:34.446Z,10.12
2018-04-12T02:58:38.882Z,9.96
2018-04-12T03:04:43.571Z,9.77
2018-04-12T03:10:48.702Z,9.72
2018-04-12T03:16:53.186Z,9.63
2018-04-12T03:22:57.548Z,9.54
2018-04-12T03:29:01.938Z,9.34
2018-04-12T03:35:06.310Z,9.24
2018-04-12T03:41:11.227Z,9.34
2018-04-12T03:47:16.488Z,9.15
2018-04-12T03:53:21.070Z,9.26
2018-04-12T03:59:25.843Z,9.21
2018-04-12T04:05:30.503Z,9.28
2018-04-12T04:11:35.243Z,9.07
2018-04-12T04:17:57.526Z,9.21
2018-04-12T04:24:02.069Z,9.16
2018-04-12T04:30:07.355Z,8.90
2018-04-12T04:36:12.873Z,9.19
2018-04-12T04:42:17.224Z,9.22
2018-04-12T04:48:21.667Z,9.22
2018-04-12T04:54:26.042Z,9.42
2018-04-12T05:00:30.390Z,9.28
2018-04-12T05:06:34.759Z,9.74
2018-04-12T05:12:39.423Z,9.89
2018-04-12T05:18:44.669Z,9.92
2018-04-12T05:24:49.032Z,10.23
2018-04-12T05:30:53.442Z,10.25
2018-04-12T05:36:58.612Z,10.31
2018-04-12T05:43:03.080Z,10.40
2018-04-12T05:49:07.452Z,10.58
2018-04-12T05:55:13.129Z,10.76
2018-04-12T06:01:17.483Z,10.82
2018-04-12T06:07:22.672Z,11.12
2018-04-12T06:13:28.532Z,11.52
2018-04-12T06:19:32.951Z,11.92
2018-04-12T06:25:38.081Z,12.24
2018-04-12T06:31:42.768Z,12.55
2018-04-12T06:37:47.171Z,13.09
2018-04-12T06:43:51.726Z,13.11
2018-04-12T06:49:57.303Z,13.47
2018-04-12T06:56:02.004Z,13.76
2018-04-12T07:02:06.371Z,14.33
2018-04-12T07:08:10.905Z,14.67
2018-04-12T07:14:15.448Z,14.85
2018-04-12T07:20:19.828Z,15.12
2018-04-12T07:26:24.435Z,14.73
2018-04-12T07:32:29.054Z,14.39
2018-04-12T07:38:33.420Z,14.41
2018-04-12T07:44:37.788Z,15.06
2018-04-12T07:50:43.051Z,15.65
2018-04-12T07:56:47.447Z,15.76
2018-04-12T08:02:51.806Z,15.58
2018-04-12T08:08:56.226Z,15.32
2018-04-12T08:15:00.584Z,15.25
2018-04-12T08:21:05.720Z,15.72
2018-04-12T08:27:10.439Z,15.61
2018-04-12T08:33:14.821Z,16.28
2018-04-12T08:39:19.201Z,16.48
2018-04-12T08:45:24.411Z,16.79
2018-04-12T08:51:28.829Z,16.77
2018-04-12T08:57:33.182Z,17.10
2018-04-12T09:03:37.555Z,17.38
2018-04-12T09:09:42.120Z,17.84
2018-04-12T09:15:46.557Z,18.04
2018-04-12T09:21:51.794Z,18.29
2018-04-12T09:27:56.394Z,18.68
2018-04-12T09:34:00.792Z,19.24
2018-04-12T09:40:05.179Z,19.96
2018-04-12T09:46:09.623Z,20.20
2018-04-12T09:52:14.178Z,19.96
2018-04-12T09:58:18.714Z,19.40
2018-04-12T10:04:27.029Z,19.06
2018-04-12T10:10:31.406Z,19.56
2018-04-12T10:16:35.912Z,20.30
2018-04-12T10:22:40.410Z,20.47
2018-04-12T10:28:44.849Z,20.45
2018-04-12T10:34:49.351Z,20.94
2018-04-12T10:40:53.723Z,23.18
2018-04-12T10:46:58.152Z,26.24
2018-04-12T10:53:02.633Z,27.67
2018-04-12T10:59:07.765Z,30.22
2018-04-12T11:05:13.020Z,30.75
2018-04-12T11:11:17.445Z,31.68
2018-04-12T11:17:21.809Z,33.05
2018-04-12T11:23:26.192Z,32.40
2018-04-12T11:29:30.623Z,32.24
2018-04-12T11:35:35.010Z,32.55
2018-04-12T11:41:39.365Z,32.52
2018-04-12T11:47:43.761Z,33.65
2018-04-12T11:53:48.157Z,33.25
2018-04-12T11:59:53.360Z,34.08
2018-04-12T12:05:57.908Z,31.50
2018-04-12T12:12:02.382Z,31.39
2018-04-12T12:18:06.770Z,30.72
2018-04-12T12:24:11.698Z,29.01
2018-04-12T12:30:16.336Z,30.42
2018-04-12T12:36:20.712Z,31.32
2018-04-12T12:42:30.880Z,31.15
2018-04-12T12:48:36.036Z,31.40
2018-04-12T12:54:40.513Z,31.99
2018-04-12T13:00:45.232Z,32.61
2018-04-12T13:06:55.837Z,32.86
2018-04-12T13:13:00.202Z,30.94
2018-04-12T13:19:10.345Z,30.37
2018-04-12T13:25:21.371Z,29.51
2018-04-12T13:31:25.736Z,29.54
2018-04-12T13:37:30.103Z,29.06
2018-04-12T13:43:34.479Z,28.42
2018-04-12T13:49:38.855Z,27.72
2018-04-12T13:55:43.216Z,28.55
2018-04-12T14:01:47.610Z,27.57
2018-04-12T14:07:53.484Z,27.22
2018-04-12T14:13:57.860Z,27.40
2018-04-12T14:20:13.735Z,26.87
2018-04-12T14:26:23.983Z,27.26
2018-04-12T14:32:34.394Z,26.23
2018-04-12T14:38:39.549Z,25.45
2018-04-12T14:44:43.944Z,24.94
2018-04-12T14:50:55.020Z,24.15
2018-04-12T14:57:05.328Z,23.81
2018-04-12T15:03:15.219Z,23.61
2018-04-12T15:09:25.564Z,23.35
2018-04-12T15:15:41.709Z,23.19
2018-04-12T15:21:57.720Z,22.93
2018-04-12T15:28:13.710Z,22.65
2018-04-12T15:34:23.902Z,22.26
2018-04-12T15:40:28.280Z,22.12
2018-04-12T15:46:32.756Z,21.99
2018-04-12T15:52:49.023Z,21.94
2018-04-12T15:58:53.598Z,21.76
2018-04-12T16:04:57.972Z,21.70
2018-04-12T16:11:08.319Z,21.99
2018-04-12T16:17:18.503Z,21.80
2018-04-12T16:23:22.967Z,21.73
2018-04-12T16:29:40.011Z,21.34
2018-04-12T16:35:45.154Z,21.10
2018-04-12T16:41:55.408Z,20.97
2018-04-12T16:48:05.750Z,20.72
2018-04-12T16:54:15.925Z,20.69
2018-04-12T17:00:20.319Z,20.43
2018-04-12T17:06:31.500Z,20.23
2018-04-12T17:12:41.791Z,20.20
2018-04-12T17:18:46.159Z,20.30
2018-04-12T17:24:57.078Z,20.21
2018-04-12T17:31:07.853Z,20.13
2018-04-12T17:37:23.800Z,19.91
2018-04-12T17:43:34.066Z,19.74
2018-04-12T17:49:39.377Z,19.48
2018-04-12T17:55:55.399Z,19.41
2018-04-12T18:01:59.760Z,19.50
2018-04-12T18:08:10.193Z,19.32
2018-04-12T18:14:26.016Z,19.30
2018-04-12T18:20:30.373Z,19.32
2018-04-12T18:26:34.743Z,19.24
2018-04-12T18:32:45.073Z,19.16
2018-04-12T18:38:49.491Z,19.11
2018-04-12T18:45:00.573Z,19.04
2018-04-12T18:51:10.871Z,18.99
2018-04-12T18:57:15.258Z,18.96
2018-04-12T19:03:19.633Z,18.78
2018-04-12T19:09:35.503Z,18.83
2018-04-12T19:15:40.119Z,18.68
2018-04-12T19:21:44.832Z,18.81
2018-04-12T19:27:49.217Z,18.75
2018-04-12T19:33:53.573Z,18.74
2018-04-12T19:39:57.930Z,18.65
2018-04-12T19:46:02.312Z,18.83
2018-04-12T19:52:06.688Z,19.08
2018-04-12T19:58:16.912Z,19.36
2018-04-12T20:04:21.282Z,19.32
2018-04-12T20:10:25.645Z,18.94
2018-04-12T20:16:35.851Z,18.50
2018-04-12T20:22:40.604Z,18.23
2018-04-12T20:28:56.560Z,18.10
2018-04-12T20:35:07.616Z,17.74
2018-04-12T20:41:17.982Z,17.58
2018-04-12T20:47:28.391Z,17.40
2018-04-12T20:53:44.558Z,17.40
2018-04-12T20:59:54.889Z,17.21
2018-04-12T21:06:00.052Z,16.94
2018-04-12T21:12:04.419Z,17.08
2018-04-12T21:18:20.622Z,16.98
2018-04-12T21:24:25.853Z,17.08
2018-04-12T21:30:36.200Z,16.97
2018-04-12T21:36:40.895Z,16.77
2018-04-12T21:42:45.414Z,16.68
2018-04-12T21:48:50.212Z,16.80
2018-04-12T21:54:54.580Z,16.83
2018-04-12T22:00:58.937Z,16.92
2018-04-12T22:07:09.151Z,17.54
2018-04-12T22:13:13.631Z,18.01
2018-04-12T22:19:23.983Z,17.95
2018-04-12T22:25:28.415Z,18.14
2018-04-12T22:31:51.015Z,17.92
2018-04-12T22:38:07.562Z,17.96
2018-04-12T22:44:12.038Z,17.75
2018-04-12T22:50:22.388Z,17.85
2018-04-12T22:56:26.855Z,17.45
2018-04-12T23:02:31.223Z,17.31
2018-04-12T23:08:41.874Z,17.32
2018-04-12T23:14:46.347Z,16.89
2018-04-12T23:20:56.470Z,16.58
2018-04-12T23:27:01.011Z,16.61
2018-04-12T23:33:12.470Z,16.45
2018-04-12T23:39:28.434Z,16.38
2018-04-12T23:45:38.844Z,16.33
2018-04-12T23:51:43.373Z,16.21
2018-04-12T23:57:47.742Z,15.95
